createdAt,value
2018-03-30T00:01:38.232Z,3.17
2018-03-30T00:04:05.862Z,3.17
2018-03-30T00:06:33.465Z,3.17
2018-03-30T00:09:01.087Z,3.17
2018-03-30T00:11:28.701Z,3.16
2018-03-30T00:13:56.356Z,3.14
2018-03-30T00:16:23.967Z,3.14
2018-03-30T00:18:51.593Z,3.13
2018-03-30T00:21:19.246Z,3.11
2018-03-30T00:23:46.908Z,3.09
2018-03-30T00:26:14.568Z,3.07
2018-03-30T00:28:42.238Z,3.07
2018-03-30T00:31:09.845Z,3.05
2018-03-30T00:33:37.556Z,3.03
2018-03-30T00:36:05.162Z,3.03
2018-03-30T00:38:32.773Z,3.02
2018-03-30T00:41:00.449Z,3.03
2018-03-30T00:43:28.052Z,3.03
2018-03-30T00:45:55.768Z,3.01
2018-03-30T00:48:23.370Z,3.01
2018-03-30T00:50:50.996Z,3.00
2018-03-30T00:53:30.433Z,3.00
2018-03-30T00:55:58.097Z,3.00
2018-03-30T00:58:25.764Z,2.97
2018-03-30T01:00:53.424Z,2.99
2018-03-30T01:03:21.030Z,2.98
2018-03-30T01:05:48.661Z,2.97
2018-03-30T01:08:16.259Z,2.95
2018-03-30T01:10:43.880Z,2.91
2018-03-30T01:13:11.541Z,2.87
2018-03-30T01:15:39.164Z,2.80
2018-03-30T01:18:06.764Z,2.73
2018-03-30T01:20:34.425Z,2.65
2018-03-30T01:23:02.083Z,2.58
2018-03-30T01:25:29.715Z,2.51
2018-03-30T01:27:57.323Z,2.43
2018-03-30T01:30:24.948Z,2.36
2018-03-30T01:32:52.624Z,2.30
2018-03-30T01:35:20.255Z,2.24
2018-03-30T01:37:47.956Z,2.22
2018-03-30T01:40:15.580Z,2.20
2018-03-30T01:42:43.184Z,2.21
2018-03-30T01:45:10.808Z,2.23
2018-03-30T01:47:38.420Z,2.24
2018-03-30T01:50:06.040Z,2.28
2018-03-30T01:52:33.649Z,2.32
2018-03-30T01:55:01.275Z,2.36
2018-03-30T01:57:28.881Z,2.39
2018-03-30T01:59:56.508Z,2.43
2018-03-30T02:02:24.112Z,2.45
2018-03-30T02:04:51.755Z,2.47
2018-03-30T02:07:19.360Z,2.48
2018-03-30T02:09:46.990Z,2.49
2018-03-30T02:12:14.720Z,2.50
2018-03-30T02:14:42.344Z,2.52
2018-03-30T02:17:09.949Z,2.53
2018-03-30T02:19:37.582Z,2.52
2018-03-30T02:22:05.184Z,2.53
2018-03-30T02:24:32.799Z,2.56
2018-03-30T02:27:00.441Z,2.56
2018-03-30T02:29:28.052Z,2.57
2018-03-30T02:31:55.717Z,2.56
2018-03-30T02:34:23.326Z,2.58
2018-03-30T02:36:50.949Z,2.59
2018-03-30T02:39:18.602Z,2.59
2018-03-30T02:41:46.223Z,2.58
2018-03-30T02:44:13.826Z,2.59
2018-03-30T02:46:41.447Z,2.64
2018-03-30T02:49:09.047Z,2.62
2018-03-30T02:51:36.670Z,2.60
2018-03-30T02:54:04.275Z,2.58
2018-03-30T02:56:31.933Z,2.58
2018-03-30T02:58:59.593Z,2.58
2018-03-30T03:01:27.215Z,2.56
2018-03-30T03:03:54.849Z,2.54
2018-03-30T03:06:22.491Z,2.54
2018-03-30T03:08:50.140Z,2.53
2018-03-30T03:11:17.803Z,2.49
2018-03-30T03:13:45.399Z,2.42
2018-03-30T03:16:13.128Z,2.37
2018-03-30T03:18:40.732Z,2.30
2018-03-30T03:21:08.360Z,2.28
2018-03-30T03:23:36.117Z,2.24
2018-03-30T03:26:03.784Z,2.24
2018-03-30T03:28:31.445Z,2.22
2018-03-30T03:30:59.113Z,2.19
2018-03-30T03:33:26.772Z,2.14
2018-03-30T03:35:54.398Z,2.07
2018-03-30T03:38:21.995Z,2.00
2018-03-30T03:40:49.623Z,1.92
2018-03-30T03:43:17.326Z,1.84
2018-03-30T03:45:44.956Z,1.77
2018-03-30T03:48:12.600Z,1.70
2018-03-30T03:50:40.224Z,1.63
2018-03-30T03:53:07.819Z,1.59
2018-03-30T03:55:35.522Z,1.55
2018-03-30T03:58:03.127Z,1.51
2018-03-30T04:00:30.752Z,1.50
2018-03-30T04:02:58.429Z,1.49
2018-03-30T04:05:26.104Z,1.48
2018-03-30T04:07:53.843Z,1.46
2018-03-30T04:10:21.459Z,1.45
2018-03-30T04:12:49.155Z,1.43
2018-03-30T04:15:16.831Z,1.40
2018-03-30T04:17:44.604Z,1.39
2018-03-30T04:20:12.260Z,1.35
2018-03-30T04:22:39.887Z,1.33
2018-03-30T04:25:07.592Z,1.32
2018-03-30T04:27:35.305Z,1.33
2018-03-30T04:30:02.901Z,1.34
2018-03-30T04:32:30.685Z,1.37
2018-03-30T04:34:58.293Z,1.39
2018-03-30T04:37:25.923Z,1.42
2018-03-30T04:39:53.604Z,1.46
2018-03-30T04:42:21.237Z,1.49
2018-03-30T04:44:48.847Z,1.53
2018-03-30T04:47:16.556Z,1.58
2018-03-30T04:49:44.157Z,1.62
2018-03-30T04:52:11.876Z,1.69
2018-03-30T04:54:39.479Z,1.72
2018-03-30T04:57:07.108Z,1.78
2018-03-30T04:59:34.716Z,1.83
2018-03-30T05:02:02.439Z,1.88
2018-03-30T05:04:30.089Z,1.92
2018-03-30T05:06:57.716Z,1.94
2018-03-30T05:09:25.413Z,1.98
2018-03-30T05:11:53.075Z,2.02
2018-03-30T05:14:20.739Z,2.08
2018-03-30T05:16:48.408Z,2.12
2018-03-30T05:19:16.008Z,2.15
2018-03-30T05:21:43.728Z,2.16
2018-03-30T05:24:11.331Z,2.14
2018-03-30T05:26:38.952Z,2.12
2018-03-30T05:29:06.611Z,2.10
2018-03-30T05:31:34.235Z,2.06
2018-03-30T05:34:01.945Z,2.04
2018-03-30T05:36:29.616Z,2.04
2018-03-30T05:38:57.240Z,2.04
2018-03-30T05:41:24.933Z,2.05
2018-03-30T05:43:52.552Z,2.06
2018-03-30T05:46:20.149Z,2.07
2018-03-30T05:48:47.806Z,2.08
2018-03-30T05:51:15.484Z,2.10
2018-03-30T05:53:43.117Z,2.12
2018-03-30T05:56:10.723Z,2.13
2018-03-30T05:58:38.472Z,2.15
2018-03-30T06:01:06.071Z,2.20
2018-03-30T06:03:33.704Z,2.26
2018-03-30T06:06:01.331Z,2.33
2018-03-30T06:08:29.012Z,2.40
2018-03-30T06:10:56.676Z,2.48
2018-03-30T06:13:24.319Z,2.56
2018-03-30T06:15:52.003Z,2.62
2018-03-30T06:18:19.676Z,2.70
2018-03-30T06:20:47.344Z,2.75
2018-03-30T06:23:14.977Z,2.80
2018-03-30T06:25:42.661Z,2.83
2018-03-30T06:28:10.315Z,2.87
2018-03-30T06:30:37.985Z,2.91
2018-03-30T06:33:05.653Z,2.98
2018-03-30T06:35:33.314Z,3.02
2018-03-30T06:38:00.949Z,3.06
2018-03-30T06:40:28.565Z,3.11
2018-03-30T06:42:57.733Z,3.12
2018-03-30T06:45:25.340Z,3.13
2018-03-30T06:47:52.968Z,3.12
2018-03-30T06:50:20.613Z,3.12
2018-03-30T06:52:48.245Z,3.10
2018-03-30T06:55:15.945Z,3.08
2018-03-30T06:57:43.705Z,3.12
2018-03-30T07:00:11.220Z,3.16
2018-03-30T07:02:38.847Z,3.20
2018-03-30T07:05:06.493Z,3.25
2018-03-30T07:07:34.152Z,3.30
2018-03-30T07:10:01.766Z,3.40
2018-03-30T07:12:29.385Z,3.50
2018-03-30T07:14:57.014Z,3.61
2018-03-30T07:17:24.705Z,3.74
2018-03-30T07:19:52.327Z,3.81
2018-03-30T07:22:19.927Z,3.86
2018-03-30T07:24:47.580Z,3.85
2018-03-30T07:27:15.253Z,3.82
2018-03-30T07:29:42.883Z,3.78
2018-03-30T07:32:10.501Z,3.77
2018-03-30T07:34:38.124Z,3.80
2018-03-30T07:37:05.791Z,3.92
2018-03-30T07:39:33.464Z,4.02
2018-03-30T07:42:01.075Z,4.14
2018-03-30T07:44:28.704Z,4.25
2018-03-30T07:46:56.305Z,4.35
2018-03-30T07:49:23.927Z,4.46
2018-03-30T07:51:51.533Z,4.51
2018-03-30T07:54:19.167Z,4.56
2018-03-30T07:56:46.772Z,4.60
2018-03-30T07:59:14.401Z,4.63
2018-03-30T08:01:42.005Z,4.67
2018-03-30T08:04:09.632Z,4.70
2018-03-30T08:06:37.268Z,4.74
2018-03-30T08:09:05.027Z,4.80
2018-03-30T08:11:32.672Z,4.87
2018-03-30T08:14:00.323Z,4.96
2018-03-30T08:16:27.922Z,5.06
2018-03-30T08:18:55.547Z,5.17
2018-03-30T08:21:23.198Z,5.28
2018-03-30T08:23:50.881Z,5.38
2018-03-30T08:26:18.519Z,5.44
2018-03-30T08:28:46.145Z,5.47
2018-03-30T08:31:13.748Z,5.49
2018-03-30T08:33:41.377Z,5.54
2018-03-30T08:36:09.088Z,5.59
2018-03-30T08:38:36.737Z,5.64
2018-03-30T08:41:04.335Z,5.69
2018-03-30T08:43:31.975Z,5.70
2018-03-30T08:45:59.585Z,5.72
2018-03-30T08:48:27.304Z,5.70
2018-03-30T08:50:54.973Z,5.73
2018-03-30T08:53:22.583Z,5.76
2018-03-30T08:55:50.203Z,5.81
2018-03-30T08:58:17.809Z,5.84
2018-03-30T09:00:45.449Z,5.89
2018-03-30T09:03:13.080Z,5.95
2018-03-30T09:05:40.836Z,6.05
2018-03-30T09:08:08.506Z,6.15
2018-03-30T09:10:36.128Z,6.26
2018-03-30T09:13:03.824Z,6.38
2018-03-30T09:15:31.492Z,6.51
2018-03-30T09:17:59.161Z,6.63
2018-03-30T09:20:26.803Z,6.72
2018-03-30T09:22:54.417Z,6.80
2018-03-30T09:25:22.044Z,6.91
2018-03-30T09:27:49.645Z,7.04
2018-03-30T09:30:17.269Z,7.18
2018-03-30T09:32:44.923Z,7.29
2018-03-30T09:35:12.584Z,7.39
2018-03-30T09:37:40.257Z,7.47
2018-03-30T09:40:07.883Z,7.55
2018-03-30T09:42:35.576Z,7.63
2018-03-30T09:45:03.207Z,7.71
2018-03-30T09:47:30.816Z,7.76
2018-03-30T09:49:58.470Z,7.80
2018-03-30T09:52:26.073Z,7.87
2018-03-30T09:54:53.696Z,7.93
2018-03-30T09:57:21.300Z,7.98
2018-03-30T09:59:49.008Z,8.02
2018-03-30T10:02:16.612Z,8.05
2018-03-30T10:04:44.919Z,8.08
2018-03-30T10:07:12.525Z,8.11
2018-03-30T10:09:40.231Z,8.10
2018-03-30T10:12:07.945Z,8.08
2018-03-30T10:14:35.605Z,8.05
2018-03-30T10:17:03.221Z,8.04
2018-03-30T10:19:30.927Z,8.02
2018-03-30T10:21:58.537Z,7.97
2018-03-30T10:24:26.168Z,7.94
2018-03-30T10:26:53.812Z,7.90
2018-03-30T10:29:21.472Z,7.87
2018-03-30T10:31:49.145Z,7.87
2018-03-30T10:34:16.805Z,7.90
2018-03-30T10:36:44.427Z,7.92
2018-03-30T10:39:12.186Z,7.94
2018-03-30T10:41:39.819Z,7.96
2018-03-30T10:44:07.453Z,7.98
2018-03-30T10:46:35.123Z,7.99
2018-03-30T10:49:02.773Z,8.01
2018-03-30T10:51:30.408Z,8.00
2018-03-30T10:53:58.020Z,7.97
2018-03-30T10:56:25.768Z,7.98
2018-03-30T10:58:53.381Z,8.00
2018-03-30T11:01:21.016Z,8.03
2018-03-30T11:03:48.646Z,8.06
2018-03-30T11:06:16.276Z,8.11
2018-03-30T11:08:43.974Z,8.16
2018-03-30T11:11:11.609Z,8.16
2018-03-30T11:13:39.233Z,8.18
2018-03-30T11:16:06.859Z,8.19
2018-03-30T11:18:34.468Z,8.22
2018-03-30T11:21:02.092Z,8.29
2018-03-30T11:23:29.756Z,8.32
2018-03-30T11:25:57.375Z,8.35
2018-03-30T11:28:24.985Z,8.36
2018-03-30T11:30:52.676Z,8.33
2018-03-30T11:33:20.264Z,8.30
2018-03-30T11:35:48.704Z,8.28
2018-03-30T11:38:16.303Z,8.30
2018-03-30T11:40:43.936Z,8.35
2018-03-30T11:43:11.532Z,8.37
2018-03-30T11:45:39.184Z,8.40
2018-03-30T11:48:06.883Z,8.44
2018-03-30T11:50:34.516Z,8.48
2018-03-30T11:53:02.161Z,8.50
2018-03-30T11:55:29.797Z,8.51
2018-03-30T11:57:57.405Z,8.56
2018-03-30T12:00:25.057Z,8.60
2018-03-30T12:02:52.663Z,8.65
2018-03-30T12:05:20.332Z,8.70
2018-03-30T12:07:47.974Z,8.75
2018-03-30T12:10:15.576Z,8.78
2018-03-30T12:12:43.291Z,8.74
2018-03-30T12:15:10.973Z,8.69
2018-03-30T12:17:38.600Z,8.70
2018-03-30T12:20:06.196Z,8.73
2018-03-30T12:22:33.860Z,8.79
2018-03-30T12:25:01.464Z,8.81
2018-03-30T12:27:29.102Z,8.87
2018-03-30T12:29:56.721Z,8.92
2018-03-30T12:32:24.344Z,8.95
2018-03-30T12:34:51.952Z,8.97
2018-03-30T12:37:19.600Z,8.98
2018-03-30T12:39:47.301Z,9.01
2018-03-30T12:42:14.942Z,9.03
2018-03-30T12:44:42.616Z,9.06
2018-03-30T12:47:11.001Z,9.09
2018-03-30T12:49:38.678Z,9.14
2018-03-30T12:52:06.328Z,9.21
2018-03-30T12:54:34.073Z,9.28
2018-03-30T12:57:01.697Z,9.36
2018-03-30T12:59:29.305Z,9.44
2018-03-30T13:01:56.935Z,9.51
2018-03-30T13:04:24.568Z,9.58
2018-03-30T13:06:52.200Z,9.65
2018-03-30T13:09:19.804Z,9.66
2018-03-30T13:11:47.424Z,9.62
2018-03-30T13:14:15.084Z,9.63
2018-03-30T13:16:42.747Z,9.62
2018-03-30T13:19:10.347Z,9.62
2018-03-30T13:21:38.076Z,9.63
2018-03-30T13:24:05.685Z,9.64
2018-03-30T13:26:33.427Z,9.62
2018-03-30T13:29:01.019Z,9.59
2018-03-30T13:31:28.648Z,9.57
2018-03-30T13:33:56.293Z,9.58
2018-03-30T13:36:23.948Z,9.58
2018-03-30T13:38:51.543Z,9.59
2018-03-30T13:41:19.281Z,9.59
2018-03-30T13:43:46.945Z,9.58
2018-03-30T13:46:14.552Z,9.58
2018-03-30T13:48:42.175Z,9.55
2018-03-30T13:51:14.127Z,9.48
2018-03-30T13:53:41.794Z,9.39
2018-03-30T13:56:20.939Z,9.32
2018-03-30T13:58:49.192Z,9.24
2018-03-30T14:01:18.600Z,9.15
2018-03-30T14:03:51.647Z,9.10
2018-03-30T14:06:25.644Z,9.06
2018-03-30T14:09:06.437Z,9.06
2018-03-30T14:11:39.710Z,9.05
2018-03-30T14:14:07.428Z,9.05
2018-03-30T14:16:35.747Z,9.05
2018-03-30T14:19:05.823Z,9.06
2018-03-30T14:24:30.443Z,8.97
2018-03-30T14:27:03.529Z,8.93
2018-03-30T14:29:31.208Z,8.92
2018-03-30T14:34:58.441Z,8.83
2018-03-30T14:37:29.661Z,8.80
2018-03-30T14:40:07.834Z,8.79
2018-03-30T14:42:37.427Z,8.75
2018-03-30T14:45:10.733Z,8.70
2018-03-30T14:47:42.757Z,8.63
2018-03-30T14:50:25.920Z,8.56
2018-03-30T14:52:55.271Z,8.49
2018-03-30T14:55:23.591Z,8.40
2018-03-30T14:57:58.724Z,8.35
2018-03-30T15:00:29.781Z,8.29
2018-03-30T15:06:21.213Z,8.18
2018-03-30T15:08:49.632Z,8.15
2018-03-30T15:14:20.717Z,8.12
2018-03-30T15:16:50.575Z,8.09
2018-03-30T15:19:18.852Z,8.05
2018-03-30T15:21:48.947Z,8.01
2018-03-30T15:24:20.022Z,7.97
2018-03-30T15:26:52.533Z,7.92
2018-03-30T15:29:20.855Z,7.86
2018-03-30T15:31:51.370Z,7.83
2018-03-30T15:34:19.797Z,7.80
2018-03-30T15:36:48.944Z,7.76
2018-03-30T15:39:16.581Z,7.73
2018-03-30T15:41:44.302Z,7.72
2018-03-30T15:44:11.949Z,7.71
2018-03-30T15:46:44.260Z,7.68
2018-03-30T15:49:11.888Z,7.67
2018-03-30T15:51:43.148Z,7.65
2018-03-30T15:54:10.221Z,7.62
2018-03-30T15:56:38.583Z,7.59
2018-03-30T15:59:06.184Z,7.55
2018-03-30T16:01:33.899Z,7.50
2018-03-30T16:04:01.517Z,7.45
2018-03-30T16:06:29.136Z,7.38
2018-03-30T16:08:56.832Z,7.34
2018-03-30T16:11:30.236Z,7.30
2018-03-30T16:13:57.869Z,7.24
2018-03-30T16:16:25.500Z,7.17
2018-03-30T16:18:56.488Z,7.07
2018-03-30T16:21:23.614Z,6.98
2018-03-30T16:23:50.687Z,6.92
2018-03-30T16:26:17.804Z,6.85
2018-03-30T16:28:44.956Z,6.79
2018-03-30T16:31:12.015Z,6.74
2018-03-30T16:33:39.100Z,6.65
2018-03-30T16:36:06.178Z,6.56
2018-03-30T16:38:33.280Z,6.47
2018-03-30T16:41:00.344Z,6.38
2018-03-30T16:43:27.431Z,6.31
2018-03-30T16:45:55.311Z,6.24
2018-03-30T16:48:22.469Z,6.17
2018-03-30T16:50:49.549Z,6.11
2018-03-30T16:53:16.777Z,6.04
2018-03-30T16:55:43.927Z,5.98
2018-03-30T16:58:11.068Z,5.93
2018-03-30T17:00:38.131Z,5.89
2018-03-30T17:03:05.268Z,5.82
2018-03-30T17:05:32.331Z,5.76
2018-03-30T17:07:59.420Z,5.69
2018-03-30T17:10:26.517Z,5.61
2018-03-30T17:12:53.623Z,5.53
2018-03-30T17:15:20.711Z,5.47
2018-03-30T17:17:47.864Z,5.39
2018-03-30T17:20:15.025Z,5.32
2018-03-30T17:22:42.107Z,5.24
2018-03-30T17:25:09.168Z,5.16
2018-03-30T17:27:36.251Z,5.08
2018-03-30T17:30:03.323Z,4.98
2018-03-30T17:32:30.411Z,4.91
2018-03-30T17:34:57.506Z,4.83
2018-03-30T17:37:24.597Z,4.76
2018-03-30T17:39:51.660Z,4.67
2018-03-30T17:42:18.745Z,4.60
2018-03-30T17:44:45.807Z,4.53
2018-03-30T17:47:12.960Z,4.47
2018-03-30T17:49:40.056Z,4.40
2018-03-30T17:52:07.122Z,4.33
2018-03-30T17:54:34.219Z,4.28
2018-03-30T17:57:01.288Z,4.21
2018-03-30T17:59:28.407Z,4.16
2018-03-30T18:01:55.468Z,4.10
2018-03-30T18:04:22.600Z,4.04
2018-03-30T18:06:49.663Z,3.99
2018-03-30T18:09:16.808Z,3.93
2018-03-30T18:11:43.878Z,3.89
2018-03-30T18:14:10.972Z,3.83
2018-03-30T18:16:38.060Z,3.79
2018-03-30T18:19:05.224Z,3.75
2018-03-30T18:21:32.293Z,3.70
2018-03-30T18:23:59.380Z,3.65
2018-03-30T18:26:26.444Z,3.59
2018-03-30T18:28:53.537Z,3.53
2018-03-30T18:31:20.603Z,3.48
2018-03-30T18:33:47.689Z,3.43
2018-03-30T18:36:14.753Z,3.39
2018-03-30T18:38:41.877Z,3.33
2018-03-30T18:41:09.048Z,3.29
2018-03-30T18:43:36.141Z,3.24
2018-03-30T18:46:03.213Z,3.20
2018-03-30T18:48:30.393Z,3.17
2018-03-30T18:50:57.461Z,3.12
2018-03-30T18:53:24.601Z,3.07
2018-03-30T18:55:51.669Z,3.03
2018-03-30T18:58:18.752Z,3.00
2018-03-30T19:00:45.853Z,2.96
2018-03-30T19:03:12.939Z,2.94
2018-03-30T19:05:40.049Z,2.90
2018-03-30T19:08:07.192Z,2.86
2018-03-30T19:10:34.288Z,2.83
2018-03-30T19:13:01.356Z,2.80
2018-03-30T19:15:28.539Z,2.77
2018-03-30T19:17:55.701Z,2.73
2018-03-30T19:20:22.787Z,2.71
2018-03-30T19:22:49.901Z,2.69
2018-03-30T19:25:16.988Z,2.66
2018-03-30T19:27:44.093Z,2.64
2018-03-30T19:30:11.181Z,2.61
2018-03-30T19:32:38.301Z,2.58
2018-03-30T19:35:05.397Z,2.56
2018-03-30T19:37:32.463Z,2.54
2018-03-30T19:39:59.650Z,2.53
2018-03-30T19:42:26.753Z,2.50
2018-03-30T19:44:53.839Z,2.48
2018-03-30T19:47:20.906Z,2.46
2018-03-30T19:49:47.991Z,2.43
2018-03-30T19:52:15.058Z,2.41
2018-03-30T19:54:42.139Z,2.40
2018-03-30T19:57:09.291Z,2.39
2018-03-30T19:59:36.392Z,2.36
2018-03-30T20:02:03.456Z,2.35
2018-03-30T20:04:30.541Z,2.34
2018-03-30T20:06:57.683Z,2.32
2018-03-30T20:09:24.836Z,2.30
2018-03-30T20:11:51.900Z,2.29
2018-03-30T20:14:19.003Z,2.27
2018-03-30T20:16:46.082Z,2.25
2018-03-30T20:19:13.172Z,2.24
2018-03-30T20:21:40.284Z,2.23
2018-03-30T20:24:07.368Z,2.21
2018-03-30T20:26:34.436Z,2.19
2018-03-30T20:29:01.530Z,2.17
2018-03-30T20:31:28.679Z,2.14
2018-03-30T20:33:55.741Z,2.12
2018-03-30T20:36:22.837Z,2.11
2018-03-30T20:38:49.927Z,2.10
2018-03-30T20:41:17.026Z,2.08
2018-03-30T20:43:44.096Z,2.06
2018-03-30T20:46:11.277Z,2.04
2018-03-30T20:48:38.364Z,2.02
2018-03-30T20:51:05.456Z,2.01
2018-03-30T20:53:32.518Z,1.99
2018-03-30T20:55:59.599Z,1.98
2018-03-30T20:58:26.750Z,1.97
2018-03-30T21:00:53.976Z,1.97
2018-03-30T21:03:21.061Z,1.95
2018-03-30T21:05:48.228Z,1.95
2018-03-30T21:08:15.309Z,1.94
2018-03-30T21:10:42.486Z,1.93
2018-03-30T21:13:09.553Z,1.93
2018-03-30T21:15:36.680Z,1.90
2018-03-30T21:18:03.744Z,1.89
2018-03-30T21:20:30.903Z,1.87
2018-03-30T21:22:57.968Z,1.85
2018-03-30T21:25:25.132Z,1.84
2018-03-30T21:27:52.277Z,1.82
2018-03-30T21:30:19.444Z,1.82
2018-03-30T21:32:46.513Z,1.81
2018-03-30T21:35:13.600Z,1.80
2018-03-30T21:37:40.671Z,1.80
2018-03-30T21:40:07.776Z,1.80
2018-03-30T21:42:34.839Z,1.81
2018-03-30T21:45:02.076Z,1.79
2018-03-30T21:47:29.229Z,1.79
2018-03-30T21:49:56.380Z,1.78
2018-03-30T21:52:23.532Z,1.77
2018-03-30T21:54:50.616Z,1.76
2018-03-30T21:57:17.724Z,1.75
2018-03-30T21:59:44.776Z,1.75
2018-03-30T22:02:12.037Z,1.75
2018-03-30T22:04:39.184Z,1.73
2018-03-30T22:07:06.351Z,1.73
2018-03-30T22:09:33.412Z,1.73
2018-03-30T22:12:00.637Z,1.72
2018-03-30T22:14:27.782Z,1.71
2018-03-30T22:16:55.044Z,1.72
2018-03-30T22:19:22.103Z,1.70
2018-03-30T22:21:49.197Z,1.70
2018-03-30T22:24:16.348Z,1.70
2018-03-30T22:26:43.545Z,1.70
2018-03-30T22:29:10.701Z,1.69
2018-03-30T22:31:37.784Z,1.69
2018-03-30T22:34:04.847Z,1.69
2018-03-30T22:36:32.049Z,1.69
2018-03-30T22:38:59.112Z,1.69
2018-03-30T22:41:26.195Z,1.70
2018-03-30T22:43:53.255Z,1.71
2018-03-30T22:46:20.440Z,1.71
2018-03-30T22:48:47.505Z,1.72
2018-03-30T22:51:14.637Z,1.73
2018-03-30T22:53:41.706Z,1.75
2018-03-30T22:56:08.836Z,1.76
2018-03-30T22:58:35.903Z,1.76
2018-03-30T23:01:03.037Z,1.79
2018-03-30T23:03:30.186Z,1.79
2018-03-30T23:05:57.272Z,1.79
2018-03-30T23:08:24.340Z,1.81
2018-03-30T23:10:51.437Z,1.81
2018-03-30T23:13:18.592Z,1.82
2018-03-30T23:15:45.740Z,1.81
2018-03-30T23:18:12.888Z,1.81
2018-03-30T23:20:39.981Z,1.82
2018-03-30T23:23:07.052Z,1.82
2018-03-30T23:25:34.125Z,1.81
2018-03-30T23:28:01.389Z,1.80
2018-03-30T23:30:28.460Z,1.80
2018-03-30T23:32:55.561Z,1.81
2018-03-30T23:35:22.689Z,1.80
2018-03-30T23:37:49.748Z,1.79
2018-03-30T23:40:16.820Z,1.79
2018-03-30T23:42:43.984Z,1.78
2018-03-30T23:45:11.139Z,1.77
2018-03-30T23:47:38.224Z,1.78
2018-03-30T23:50:05.298Z,1.77
2018-03-30T23:52:32.464Z,1.76
2018-03-30T23:54:59.541Z,1.75
2018-03-30T23:57:26.642Z,1.75
2018-03-30T23:59:53.717Z,1.75
